Time;durP1;ratioP1;P1;durP2;ratioP2;P2;SDS_P1;SDS_P2;PMS_P1;PMS_P2;Temp;Humidity;BMP_temperature;BMP_pressure;BME280_temperature;BME280_humidity;BME280_pressure;Samples;Min_cycle;Max_cycle;Signal;HPM_P1;HPM_P2
2023/06/24 00:02:23;;;;;;;7.63;3.47;;;;;;;;;;5068005;28;20121;-65
2023/06/24 00:04:50;;;;;;;6.35;3.47;;;;;;;;;;5072616;27;20097;-65
2023/06/24 00:07:16;;;;;;;9.38;3.80;;;;;;;;;;5108711;27;20082;-65
2023/06/24 00:09:43;;;;;;;8.07;4.00;;;;;;;;;;5121020;27;20046;-65
2023/06/24 00:12:19;;;;;;;7.20;3.60;;;;;;;;;;5134388;27;20075;-65
2023/06/24 00:14:46;;;;;;;8.57;3.85;;;;;;;;;;5104022;27;20047;-66
2023/06/24 00:17:12;;;;;;;6.05;3.38;;;;;;;;;;5095921;28;20054;-65
2023/06/24 00:19:39;;;;;;;7.32;3.58;;;;;;;;;;5102029;27;20120;-65
2023/06/24 00:22:06;;;;;;;6.85;3.40;;;;;;;;;;5104252;28;20079;-65
2023/06/24 00:24:32;;;;;;;6.70;3.80;;;;;;;;;;5094190;28;20062;-65
2023/06/24 00:26:58;;;;;;;11.40;3.38;;;;;;;;;;5075898;27;20113;-67
2023/06/24 00:29:26;;;;;;;7.10;3.72;;;;;;;;;;5080461;28;20083;-65
2023/06/24 00:31:53;;;;;;;6.13;3.28;;;;;;;;;;5084046;28;20078;-64
2023/06/24 00:34:20;;;;;;;7.68;3.22;;;;;;;;;;5086817;27;20040;-64
2023/06/24 00:36:47;;;;;;;9.90;3.50;;;;;;;;;;5072004;28;20138;-65
2023/06/24 00:39:13;;;;;;;7.30;3.63;;;;;;;;;;5079774;27;20181;-65
2023/06/24 00:41:40;;;;;;;8.77;3.85;;;;;;;;;;5103017;28;20059;-65
2023/06/24 00:44:07;;;;;;;7.15;3.78;;;;;;;;;;5101827;28;20055;-66
2023/06/24 00:46:35;;;;;;;7.40;3.75;;;;;;;;;;5101831;27;20048;-65
2023/06/24 00:49:02;;;;;;;6.85;3.92;;;;;;;;;;5095555;28;20158;-65
2023/06/24 00:51:30;;;;;;;6.40;3.10;;;;;;;;;;5104441;27;20027;-65
2023/06/24 00:53:56;;;;;;;6.88;3.83;;;;;;;;;;5104767;28;20067;-65
2023/06/24 00:56:25;;;;;;;12.68;5.05;;;;;;;;;;5099648;27;20081;-64
2023/06/24 00:58:52;;;;;;;8.63;4.47;;;;;;;;;;5101572;28;20051;-65
2023/06/24 01:01:19;;;;;;;13.43;5.20;;;;;;;;;;5081273;27;20135;-65
2023/06/24 01:03:47;;;;;;;15.07;6.18;;;;;;;;;;5084353;28;20052;-65
2023/06/24 01:06:14;;;;;;;8.48;4.78;;;;;;;;;;5087667;28;20051;-65
2023/06/24 01:08:41;;;;;;;9.90;5.03;;;;;;;;;;5104008;27;20051;-65
2023/06/24 01:11:07;;;;;;;9.45;5.22;;;;;;;;;;5104572;27;20051;-65
2023/06/24 01:13:34;;;;;;;11.52;5.32;;;;;;;;;;5102257;28;20113;-65
2023/06/24 01:16:04;;;;;;;10.88;5.30;;;;;;;;;;5091316;28;20075;-65
2023/06/24 01:18:33;;;;;;;11.70;5.40;;;;;;;;;;5091555;28;20060;-64
2023/06/24 01:21:04;;;;;;;10.18;5.40;;;;;;;;;;5092894;27;20141;-64
2023/06/24 01:23:43;;;;;;;10.30;5.38;;;;;;;;;;5104762;28;20055;-65
2023/06/24 01:26:20;;;;;;;11.05;5.15;;;;;;;;;;5097861;28;20039;-64
2023/06/24 01:28:56;;;;;;;10.57;5.72;;;;;;;;;;5106679;28;20071;-65
2023/06/24 01:31:30;;;;;;;10.15;5.50;;;;;;;;;;5083734;28;20168;-65
2023/06/24 01:33:59;;;;;;;12.57;6.15;;;;;;;;;;5101244;28;20059;-64
2023/06/24 01:36:26;;;;;;;11.05;5.93;;;;;;;;;;5096480;27;20082;-65
2023/06/24 01:38:55;;;;;;;13.40;6.05;;;;;;;;;;5099561;28;20107;-66
2023/06/24 01:41:23;;;;;;;10.80;6.13;;;;;;;;;;5099880;27;20055;-65
2023/06/24 01:43:50;;;;;;;10.20;5.50;;;;;;;;;;5102526;28;20059;-65
2023/06/24 01:46:17;;;;;;;11.40;5.47;;;;;;;;;;5099932;28;20139;-65
2023/06/24 01:48:46;;;;;;;17.63;5.55;;;;;;;;;;5099324;28;20044;-65
2023/06/24 01:51:15;;;;;;;10.07;5.55;;;;;;;;;;5107065;28;20032;-65
2023/06/24 01:53:43;;;;;;;11.88;5.47;;;;;;;;;;5082109;28;20055;-65
2023/06/24 01:56:11;;;;;;;12.20;5.37;;;;;;;;;;5079628;28;20052;-64
2023/06/24 01:58:39;;;;;;;12.00;5.50;;;;;;;;;;5093993;28;20359;-65
2023/06/24 02:01:05;;;;;;;10.32;5.22;;;;;;;;;;5099268;28;20044;-65
2023/06/24 02:03:33;;;;;;;10.18;5.15;;;;;;;;;;5105042;28;20056;-65
2023/06/24 02:06:01;;;;;;;15.25;5.80;;;;;;;;;;5090514;27;20131;-65
2023/06/24 02:08:31;;;;;;;13.13;4.88;;;;;;;;;;5105421;27;20064;-65
2023/06/24 02:10:58;;;;;;;11.68;5.45;;;;;;;;;;5129238;27;20070;-64
2023/06/24 02:13:25;;;;;;;10.23;5.70;;;;;;;;;;5102800;27;20050;-65
2023/06/24 02:15:53;;;;;;;9.90;5.88;;;;;;;;;;5098179;28;20058;-64
2023/06/24 02:18:20;;;;;;;9.57;5.28;;;;;;;;;;5099677;28;20048;-64
2023/06/24 02:20:47;;;;;;;12.23;5.57;;;;;;;;;;5100631;28;20071;-65
2023/06/24 02:23:15;;;;;;;9.45;5.65;;;;;;;;;;5097480;28;20120;-65
2023/06/24 02:25:42;;;;;;;12.25;5.78;;;;;;;;;;5099627;28;20071;-65
2023/06/24 02:28:09;;;;;;;10.38;5.53;;;;;;;;;;5100562;28;20052;-66
2023/06/24 02:30:35;;;;;;;12.43;5.47;;;;;;;;;;5087949;28;20055;-65
2023/06/24 02:33:02;;;;;;;11.68;6.32;;;;;;;;;;5082363;28;20097;-64
2023/06/24 02:35:29;;;;;;;15.80;5.95;;;;;;;;;;5087072;28;20569;-65
2023/06/24 02:37:55;;;;;;;12.43;6.15;;;;;;;;;;5102349;28;20054;-65
2023/06/24 02:40:23;;;;;;;11.60;5.75;;;;;;;;;;5092521;28;20079;-64
2023/06/24 02:42:50;;;;;;;15.63;5.68;;;;;;;;;;5101880;28;20067;-65
2023/06/24 02:45:16;;;;;;;12.10;5.82;;;;;;;;;;5084952;27;20085;-65
2023/06/24 02:47:44;;;;;;;14.32;5.43;;;;;;;;;;5102568;28;20253;-65
2023/06/24 02:50:11;;;;;;;12.88;6.13;;;;;;;;;;5097789;28;20134;-65
2023/06/24 02:52:38;;;;;;;14.35;6.15;;;;;;;;;;5102242;28;20062;-64
2023/06/24 02:55:08;;;;;;;10.77;5.45;;;;;;;;;;5095637;28;20051;-64
2023/06/24 02:57:36;;;;;;;11.80;5.55;;;;;;;;;;5095377;27;20051;-64
2023/06/24 03:00:03;;;;;;;;;;;;;;;;;;5098060;28;20050;-64
2023/06/24 03:02:30;;;;;;;12.32;4.97;;;;;;;;;;5102927;28;19923;-65
2023/06/24 03:04:58;;;;;;;11.98;5.45;;;;;;;;;;5094874;28;20093;-65
2023/06/24 03:07:24;;;;;;;11.52;5.25;;;;;;;;;;5093717;28;20051;-65
2023/06/24 03:09:51;;;;;;;11.45;6.00;;;;;;;;;;5097077;27;20066;-65
2023/06/24 03:12:18;;;;;;;11.23;5.60;;;;;;;;;;5085831;28;20062;-65
2023/06/24 03:14:46;;;;;;;17.33;5.85;;;;;;;;;;5098539;28;20048;-65
2023/06/24 03:17:12;;;;;;;14.13;5.65;;;;;;;;;;5101754;28;20148;-65
2023/06/24 03:19:39;;;;;;;11.73;5.55;;;;;;;;;;5083558;28;20121;-65
2023/06/24 03:22:05;;;;;;;10.90;5.68;;;;;;;;;;5094106;28;20051;-65
2023/06/24 03:24:32;;;;;;;9.73;5.40;;;;;;;;;;5098316;28;20044;-64
2023/06/24 03:26:58;;;;;;;10.07;5.35;;;;;;;;;;5099575;28;20055;-65
2023/06/24 03:29:25;;;;;;;11.25;5.68;;;;;;;;;;5104780;28;20172;-64
2023/06/24 03:31:53;;;;;;;10.63;5.55;;;;;;;;;;5087193;28;20078;-65
2023/06/24 03:34:19;;;;;;;9.98;5.05;;;;;;;;;;5078605;28;20056;-64
2023/06/24 03:36:46;;;;;;;10.02;5.40;;;;;;;;;;5086785;27;20052;-64
2023/06/24 03:39:14;;;;;;;11.98;5.82;;;;;;;;;;5096187;28;20036;-65
2023/06/24 03:41:41;;;;;;;10.13;5.68;;;;;;;;;;5087528;27;20098;-65
2023/06/24 03:44:08;;;;;;;11.18;5.10;;;;;;;;;;5075658;28;20101;-65
2023/06/24 03:46:34;;;;;;;10.57;5.43;;;;;;;;;;5085295;28;20043;-65
2023/06/24 03:49:02;;;;;;;11.77;5.90;;;;;;;;;;5101257;28;20051;-64
2023/06/24 03:51:29;;;;;;;9.23;5.07;;;;;;;;;;5093271;27;20123;-65
2023/06/24 03:53:55;;;;;;;10.20;5.28;;;;;;;;;;5100895;28;20055;-65
2023/06/24 03:56:22;;;;;;;12.15;5.78;;;;;;;;;;5110786;28;20226;-64
2023/06/24 03:58:48;;;;;;;11.77;5.70;;;;;;;;;;5100819;27;20075;-64
2023/06/24 04:01:17;;;;;;;12.77;5.65;;;;;;;;;;5092777;28;20063;-66
2023/06/24 04:03:44;;;;;;;11.65;5.55;;;;;;;;;;5079333;28;20141;-65
2023/06/24 04:06:12;;;;;;;10.57;5.10;;;;;;;;;;5084368;28;20059;-64
2023/06/24 04:08:39;;;;;;;12.32;5.25;;;;;;;;;;5087279;27;20142;-64
2023/06/24 04:11:09;;;;;;;11.48;5.10;;;;;;;;;;5124256;27;20054;-64
2023/06/24 04:13:35;;;;;;;10.52;5.40;;;;;;;;;;5097804;27;20079;-65
2023/06/24 04:16:02;;;;;;;11.25;5.75;;;;;;;;;;5101624;28;20066;-64
2023/06/24 04:18:28;;;;;;;10.65;5.22;;;;;;;;;;5097196;28;20047;-65
2023/06/24 04:20:57;;;;;;;11.75;5.50;;;;;;;;;;5103688;28;20051;-63
2023/06/24 04:23:25;;;;;;;13.07;5.63;;;;;;;;;;5086967;28;20044;-64
2023/06/24 04:25:51;;;;;;;10.68;5.65;;;;;;;;;;5079081;27;20062;-64
2023/06/24 04:28:19;;;;;;;13.32;6.25;;;;;;;;;;5083092;28;20047;-65
2023/06/24 04:30:45;;;;;;;11.80;5.70;;;;;;;;;;5103279;28;20047;-64
2023/06/24 04:33:12;;;;;;;11.95;5.82;;;;;;;;;;5096703;28;20094;-65
2023/06/24 04:35:38;;;;;;;11.23;5.78;;;;;;;;;;5093357;28;21575;-64
2023/06/24 04:38:05;;;;;;;10.93;6.03;;;;;;;;;;5103153;28;20112;-64
2023/06/24 04:40:33;;;;;;;13.52;5.95;;;;;;;;;;5098282;28;20062;-65
2023/06/24 04:42:59;;;;;;;10.82;5.38;;;;;;;;;;5103523;28;20216;-64
2023/06/24 04:45:26;;;;;;;13.55;5.93;;;;;;;;;;5072975;27;20056;-65
2023/06/24 04:47:52;;;;;;;12.80;6.72;;;;;;;;;;5082889;28;20048;-64
2023/06/24 04:50:19;;;;;;;12.75;6.20;;;;;;;;;;5079484;27;20068;-64
2023/06/24 04:52:45;;;;;;;13.73;6.03;;;;;;;;;;5082525;28;20064;-64
2023/06/24 04:55:12;;;;;;;11.60;5.80;;;;;;;;;;5078487;27;20048;-65
2023/06/24 04:57:42;;;;;;;10.10;5.53;;;;;;;;;;5099423;27;20083;-64
2023/06/24 05:00:09;;;;;;;11.15;5.35;;;;;;;;;;5094356;28;20056;-65
2023/06/24 05:02:36;;;;;;;11.73;5.75;;;;;;;;;;5088939;28;20048;-64
2023/06/24 05:05:02;;;;;;;10.30;4.95;;;;;;;;;;5089909;27;20138;-64
2023/06/24 05:07:29;;;;;;;10.90;4.68;;;;;;;;;;5086270;28;20056;-64
2023/06/24 05:09:56;;;;;;;13.13;5.20;;;;;;;;;;5104751;27;20055;-64
2023/06/24 05:12:22;;;;;;;11.75;3.92;;;;;;;;;;5103144;28;20044;-64
2023/06/24 05:14:52;;;;;;;11.18;4.03;;;;;;;;;;5097214;28;20128;-64
2023/06/24 05:17:19;;;;;;;32.40;17.50;;;;;;;;;;5101521;28;20047;-64
2023/06/24 05:19:45;;;;;;;14.57;6.93;;;;;;;;;;5098743;27;20074;-64
2023/06/24 05:22:12;;;;;;;8.93;4.25;;;;;;;;;;5081252;27;20056;-64
2023/06/24 05:24:38;;;;;;;9.55;4.15;;;;;;;;;;5085513;28;20159;-64
2023/06/24 05:27:07;;;;;;;9.80;4.50;;;;;;;;;;5100358;27;20146;-64
2023/06/24 05:29:34;;;;;;;9.85;4.25;;;;;;;;;;5097013;28;20308;-63
2023/06/24 05:32:03;;;;;;;8.40;4.28;;;;;;;;;;5099910;27;20107;-63
2023/06/24 05:34:30;;;;;;;9.27;4.15;;;;;;;;;;5072588;27;20039;-63
2023/06/24 05:36:56;;;;;;;9.40;4.50;;;;;;;;;;5102734;27;20063;-64
2023/06/24 05:39:23;;;;;;;9.90;4.43;;;;;;;;;;5088158;27;20082;-64
2023/06/24 05:41:49;;;;;;;15.77;5.15;;;;;;;;;;5091646;28;20047;-64
2023/06/24 05:44:17;;;;;;;10.45;4.38;;;;;;;;;;5099256;27;20144;-64
2023/06/24 05:46:44;;;;;;;11.52;5.50;;;;;;;;;;5095222;28;20098;-63
2023/06/24 05:49:12;;;;;;;13.10;4.43;;;;;;;;;;5100914;28;20071;-64
2023/06/24 05:51:38;;;;;;;9.30;4.45;;;;;;;;;;5094811;28;20063;-64
2023/06/24 05:54:05;;;;;;;12.52;5.32;;;;;;;;;;5101410;27;20059;-64
2023/06/24 05:56:31;;;;;;;10.15;5.13;;;;;;;;;;5101576;27;20230;-64
2023/06/24 05:58:58;;;;;;;11.32;3.78;;;;;;;;;;5103239;28;20063;-64
2023/06/24 06:01:25;;;;;;;7.95;4.00;;;;;;;;;;5095550;28;20055;-64
2023/06/24 06:03:51;;;;;;;8.18;4.00;;;;;;;;;;5097604;28;20056;-63
2023/06/24 06:06:20;;;;;;;10.43;4.72;;;;;;;;;;5101040;28;20071;-63
2023/06/24 06:08:46;;;;;;;9.48;4.22;;;;;;;;;;5088791;27;20186;-63
2023/06/24 06:11:13;;;;;;;15.93;5.70;;;;;;;;;;5121223;27;20123;-64
2023/06/24 06:13:39;;;;;;;10.55;4.55;;;;;;;;;;5093071;27;20138;-64
2023/06/24 06:16:09;;;;;;;10.50;5.15;;;;;;;;;;5099094;28;20095;-64
2023/06/24 06:18:35;;;;;;;9.25;4.10;;;;;;;;;;5097532;28;20084;-64
2023/06/24 06:21:01;;;;;;;10.18;4.07;;;;;;;;;;5100514;28;20073;-64
2023/06/24 06:23:29;;;;;;;9.00;4.18;;;;;;;;;;5088161;27;20071;-63
2023/06/24 06:25:56;;;;;;;9.48;3.20;;;;;;;;;;5083918;28;20055;-63
2023/06/24 06:28:23;;;;;;;8.15;3.15;;;;;;;;;;5107653;27;20066;-63
2023/06/24 06:30:49;;;;;;;7.00;3.40;;;;;;;;;;5096999;28;20070;-64
2023/06/24 06:33:19;;;;;;;5.88;3.17;;;;;;;;;;5092144;28;20055;-65
2023/06/24 06:35:45;;;;;;;9.82;4.10;;;;;;;;;;5102926;28;20074;-63
2023/06/24 06:38:12;;;;;;;11.10;4.85;;;;;;;;;;5098520;28;20140;-65
2023/06/24 06:40:40;;;;;;;10.30;4.85;;;;;;;;;;5100276;28;20075;-63
2023/06/24 06:43:06;;;;;;;12.05;4.40;;;;;;;;;;5100780;28;20051;-63
2023/06/24 06:45:33;;;;;;;9.45;4.47;;;;;;;;;;5062065;27;20075;-63
2023/06/24 06:47:59;;;;;;;9.48;4.53;;;;;;;;;;5083000;27;20060;-63
2023/06/24 06:50:26;;;;;;;7.30;3.45;;;;;;;;;;5095822;28;20142;-63
2023/06/24 06:52:55;;;;;;;11.63;5.53;;;;;;;;;;5101854;28;20071;-63
2023/06/24 06:55:21;;;;;;;9.98;4.05;;;;;;;;;;5055340;28;20055;-63
2023/06/24 06:57:49;;;;;;;9.45;3.78;;;;;;;;;;5080528;28;20059;-63
2023/06/24 07:00:16;;;;;;;11.75;4.43;;;;;;;;;;5077738;28;20064;-63
2023/06/24 07:02:42;;;;;;;7.78;3.63;;;;;;;;;;5081492;28;20135;-63
2023/06/24 07:05:11;;;;;;;8.15;4.00;;;;;;;;;;5085879;28;20104;-64
2023/06/24 07:07:38;;;;;;;11.05;4.25;;;;;;;;;;5092724;27;20087;-63
2023/06/24 07:10:04;;;;;;;8.82;3.45;;;;;;;;;;5086951;28;20143;-64
2023/06/24 07:12:31;;;;;;;11.73;4.88;;;;;;;;;;5094315;28;20055;-64
2023/06/24 07:14:59;;;;;;;7.65;3.20;;;;;;;;;;5082934;28;20151;-64
2023/06/24 07:17:25;;;;;;;8.15;3.17;;;;;;;;;;5076964;28;20059;-63
2023/06/24 07:19:52;;;;;;;9.57;4.28;;;;;;;;;;5091806;28;20060;-63
2023/06/24 07:22:18;;;;;;;5.63;2.42;;;;;;;;;;5082036;28;20083;-63
2023/06/24 07:24:45;;;;;;;6.10;2.50;;;;;;;;;;5065627;27;20055;-63
2023/06/24 07:27:12;;;;;;;10.05;4.88;;;;;;;;;;5095531;28;20132;-63
2023/06/24 07:29:38;;;;;;;6.05;2.78;;;;;;;;;;5095368;28;21199;-63
2023/06/24 07:32:07;;;;;;;5.65;2.40;;;;;;;;;;5089224;28;20059;-63
2023/06/24 07:34:34;;;;;;;8.35;3.25;;;;;;;;;;5084803;28;20052;-63
2023/06/24 07:37:00;;;;;;;6.55;2.70;;;;;;;;;;5087929;28;20121;-63
2023/06/24 07:39:27;;;;;;;6.80;3.13;;;;;;;;;;5080627;28;20131;-63
2023/06/24 07:41:53;;;;;;;7.35;3.22;;;;;;;;;;5092708;28;20063;-63
2023/06/24 07:44:20;;;;;;;7.78;4.00;;;;;;;;;;5089910;28;20064;-64
2023/06/24 07:46:46;;;;;;;8.75;3.50;;;;;;;;;;5097123;28;20059;-63
2023/06/24 07:49:14;;;;;;;9.18;3.30;;;;;;;;;;5098862;28;20052;-64
2023/06/24 07:51:41;;;;;;;6.32;2.83;;;;;;;;;;5091209;28;20111;-64
2023/06/24 07:54:07;;;;;;;6.63;2.78;;;;;;;;;;5095367;28;20141;-63
2023/06/24 07:56:34;;;;;;;10.00;3.63;;;;;;;;;;5084303;28;20137;-63
2023/06/24 07:59:01;;;;;;;7.00;3.30;;;;;;;;;;5087640;28;20048;-64
2023/06/24 08:01:28;;;;;;;8.50;3.47;;;;;;;;;;5080358;27;20163;-65
2023/06/24 08:03:54;;;;;;;6.53;2.47;;;;;;;;;;5098345;28;20059;-64
2023/06/24 08:06:23;;;;;;;6.90;2.65;;;;;;;;;;5097305;27;20101;-64
2023/06/24 08:08:50;;;;;;;5.78;2.40;;;;;;;;;;5096682;27;20061;-63
2023/06/24 08:11:16;;;;;;;4.72;2.30;;;;;;;;;;5086168;28;20068;-64
2023/06/24 08:13:43;;;;;;;7.82;2.65;;;;;;;;;;5094547;27;20071;-63
2023/06/24 08:16:09;;;;;;;5.45;2.60;;;;;;;;;;5088157;28;20056;-63
2023/06/24 08:18:36;;;;;;;6.95;3.00;;;;;;;;;;5093642;28;20127;-63
2023/06/24 08:21:02;;;;;;;6.43;3.05;;;;;;;;;;5099420;28;20138;-64
2023/06/24 08:23:30;;;;;;;5.65;2.67;;;;;;;;;;5079503;28;20058;-63
2023/06/24 08:25:56;;;;;;;7.07;3.30;;;;;;;;;;5097269;27;20056;-64
2023/06/24 08:28:23;;;;;;;6.40;3.15;;;;;;;;;;5093383;28;20040;-64
2023/06/24 08:30:51;;;;;;;4.60;2.20;;;;;;;;;;5096574;28;20052;-65
2023/06/24 08:33:17;;;;;;;7.30;3.40;;;;;;;;;;5089954;28;20044;-65
2023/06/24 08:35:43;;;;;;;7.15;2.80;;;;;;;;;;5095690;28;20059;-64
2023/06/24 08:38:10;;;;;;;9.57;3.22;;;;;;;;;;5093521;28;20060;-64
2023/06/24 08:40:43;;;;;;;8.38;2.88;;;;;;;;;;5087410;28;20055;-64
2023/06/24 08:43:10;;;;;;;6.88;2.40;;;;;;;;;;5100227;27;20043;-64
2023/06/24 08:45:36;;;;;;;5.47;2.10;;;;;;;;;;5077257;27;20134;-64
2023/06/24 08:48:04;;;;;;;6.63;2.60;;;;;;;;;;5085770;27;20060;-64
2023/06/24 08:50:34;;;;;;;4.63;2.33;;;;;;;;;;5099455;28;20066;-64
2023/06/24 08:53:02;;;;;;;7.90;3.42;;;;;;;;;;5099412;28;20075;-64
2023/06/24 08:55:29;;;;;;;8.23;3.63;;;;;;;;;;5066442;27;20150;-64
2023/06/24 08:57:56;;;;;;;8.15;3.05;;;;;;;;;;5101156;28;20055;-64
2023/06/24 09:00:24;;;;;;;6.95;2.80;;;;;;;;;;5093478;28;20146;-64
2023/06/24 09:02:50;;;;;;;6.67;2.63;;;;;;;;;;5086070;28;20081;-64
2023/06/24 09:05:17;;;;;;;12.25;2.90;;;;;;;;;;5084131;27;20046;-65
2023/06/24 09:07:44;;;;;;;5.43;2.42;;;;;;;;;;5102881;28;20139;-65
2023/06/24 09:10:11;;;;;;;8.40;3.75;;;;;;;;;;5100483;27;20059;-64
2023/06/24 09:12:37;;;;;;;11.20;4.65;;;;;;;;;;5114607;27;20079;-64
2023/06/24 09:15:06;;;;;;;8.00;4.45;;;;;;;;;;5108224;27;20047;-64
2023/06/24 09:17:32;;;;;;;6.32;2.72;;;;;;;;;;5100514;28;20169;-64
2023/06/24 09:20:22;;;;;;;6.30;2.63;;;;;;;;;;5105296;28;20100;-63
2023/06/24 09:22:50;;;;;;;7.90;2.78;;;;;;;;;;5103359;28;20104;-63
2023/06/24 09:25:17;;;;;;;7.55;3.05;;;;;;;;;;5091953;28;20062;-64
2023/06/24 09:27:48;;;;;;;8.35;3.03;;;;;;;;;;5077743;28;20044;-63
2023/06/24 09:30:20;;;;;;;7.55;3.17;;;;;;;;;;5088792;28;20151;-64
2023/06/24 09:32:46;;;;;;;7.57;3.45;;;;;;;;;;5103710;28;20119;-64
2023/06/24 09:35:13;;;;;;;6.50;2.55;;;;;;;;;;5082944;28;20047;-63
2023/06/24 09:37:40;;;;;;;7.20;3.65;;;;;;;;;;5099385;28;20056;-63
2023/06/24 09:40:09;;;;;;;7.03;3.08;;;;;;;;;;5101314;28;20094;-64
2023/06/24 09:42:36;;;;;;;10.38;3.70;;;;;;;;;;5100140;28;20132;-63
2023/06/24 09:45:05;;;;;;;6.50;3.15;;;;;;;;;;5078396;28;20079;-63
2023/06/24 09:47:33;;;;;;;9.48;4.03;;;;;;;;;;5069038;28;20063;-64
2023/06/24 09:50:02;;;;;;;9.10;3.30;;;;;;;;;;5076846;28;20087;-63
2023/06/24 09:52:29;;;;;;;6.68;2.78;;;;;;;;;;5078876;28;20051;-63
2023/06/24 09:54:58;;;;;;;8.85;3.65;;;;;;;;;;5075806;27;20070;-63
2023/06/24 09:57:28;;;;;;;7.22;3.50;;;;;;;;;;5089920;28;20055;-63
2023/06/24 09:59:54;;;;;;;9.45;3.33;;;;;;;;;;5102226;28;20112;-63
2023/06/24 10:02:21;;;;;;;7.32;3.55;;;;;;;;;;5095806;28;20055;-63
2023/06/24 10:04:49;;;;;;;8.45;3.55;;;;;;;;;;5097545;28;20128;-63
2023/06/24 10:07:17;;;;;;;7.55;2.90;;;;;;;;;;5096536;28;20051;-64
2023/06/24 10:09:44;;;;;;;6.17;2.90;;;;;;;;;;5114062;27;20055;-63
2023/06/24 10:12:10;;;;;;;5.40;2.42;;;;;;;;;;5115467;27;20053;-62
2023/06/24 10:14:37;;;;;;;7.65;2.90;;;;;;;;;;5118344;27;20149;-63
2023/06/24 10:17:04;;;;;;;11.02;3.42;;;;;;;;;;5113344;27;20066;-63
2023/06/24 10:19:31;;;;;;;7.25;3.47;;;;;;;;;;5099649;28;20043;-62
2023/06/24 10:22:00;;;;;;;12.75;4.22;;;;;;;;;;5097453;28;20052;-62
2023/06/24 10:24:30;;;;;;;7.03;3.30;;;;;;;;;;5099088;28;20060;-63
2023/06/24 10:27:01;;;;;;;5.47;2.83;;;;;;;;;;5096031;28;20061;-63
2023/06/24 10:29:34;;;;;;;6.90;3.33;;;;;;;;;;5092595;28;20062;-63
2023/06/24 10:32:04;;;;;;;7.10;3.47;;;;;;;;;;5081881;28;20146;-64
2023/06/24 10:34:32;;;;;;;9.07;3.88;;;;;;;;;;5078311;28;20146;-63
2023/06/24 10:37:01;;;;;;;5.72;2.80;;;;;;;;;;5081531;28;20056;-63
2023/06/24 10:39:37;;;;;;;7.00;3.05;;;;;;;;;;5090394;27;20071;-62
2023/06/24 10:42:18;;;;;;;7.55;3.50;;;;;;;;;;5105128;28;20150;-63
2023/06/24 10:45:00;;;;;;;8.48;4.28;;;;;;;;;;5082570;28;20062;-62
2023/06/24 10:47:28;;;;;;;8.43;3.35;;;;;;;;;;5093739;27;20237;-63
2023/06/24 10:49:55;;;;;;;10.95;5.70;;;;;;;;;;5103907;28;20048;-63
2023/06/24 10:52:23;;;;;;;6.18;2.75;;;;;;;;;;5101298;28;20109;-63
2023/06/24 10:54:51;;;;;;;13.57;3.17;;;;;;;;;;5069100;28;20068;-64
2023/06/24 10:57:30;;;;;;;6.20;2.70;;;;;;;;;;5077870;28;20091;-63
2023/06/24 10:59:57;;;;;;;6.40;2.90;;;;;;;;;;5095176;28;20308;-63
2023/06/24 11:02:24;;;;;;;7.00;3.15;;;;;;;;;;5102002;28;20051;-62
2023/06/24 11:04:52;;;;;;;8.90;3.73;;;;;;;;;;5096590;28;20127;-63
2023/06/24 11:07:19;;;;;;;7.17;3.40;;;;;;;;;;5094131;28;20301;-62
2023/06/24 11:09:51;;;;;;;9.50;3.47;;;;;;;;;;5081254;28;20056;-63
2023/06/24 11:12:17;;;;;;;9.68;3.95;;;;;;;;;;5093158;28;20134;-63
2023/06/24 11:14:44;;;;;;;8.13;3.17;;;;;;;;;;5106139;27;20075;-62
2023/06/24 11:17:10;;;;;;;7.70;3.45;;;;;;;;;;5101341;28;20055;-64
2023/06/24 11:19:39;;;;;;;6.38;2.88;;;;;;;;;;5090240;27;20121;-64
2023/06/24 11:22:05;;;;;;;5.90;2.90;;;;;;;;;;5080562;28;20055;-63
2023/06/24 11:24:32;;;;;;;9.77;4.30;;;;;;;;;;5068692;28;20152;-63
2023/06/24 11:27:00;;;;;;;7.03;3.50;;;;;;;;;;5083322;28;20059;-63
2023/06/24 11:29:30;;;;;;;8.18;3.78;;;;;;;;;;5090339;27;20056;-66
2023/06/24 11:31:56;;;;;;;7.35;3.22;;;;;;;;;;5102632;28;20056;-63
2023/06/24 11:34:23;;;;;;;5.60;2.80;;;;;;;;;;5099227;28;20047;-63
2023/06/24 11:36:49;;;;;;;11.70;4.28;;;;;;;;;;5099523;28;20074;-64
2023/06/24 11:39:23;;;;;;;8.63;3.97;;;;;;;;;;5095982;28;20055;-66
2023/06/24 11:41:49;;;;;;;12.25;4.55;;;;;;;;;;5079654;28;20063;-64
2023/06/24 11:44:19;;;;;;;8.32;3.58;;;;;;;;;;5069837;28;20056;-64
2023/06/24 11:46:46;;;;;;;8.00;3.65;;;;;;;;;;5096511;28;20143;-63
2023/06/24 11:49:14;;;;;;;8.40;3.53;;;;;;;;;;5096908;28;20083;-64
2023/06/24 11:51:47;;;;;;;8.27;4.20;;;;;;;;;;5082628;27;21198;-66
2023/06/24 11:54:13;;;;;;;6.85;3.60;;;;;;;;;;5081567;28;20059;-63
2023/06/24 11:56:41;;;;;;;11.48;3.92;;;;;;;;;;5089902;28;20079;-64
2023/06/24 11:59:17;;;;;;;9.38;4.57;;;;;;;;;;5101898;28;20059;-63
2023/06/24 12:01:45;;;;;;;7.38;2.78;;;;;;;;;;5098820;28;20067;-63
2023/06/24 12:04:11;;;;;;;9.02;3.83;;;;;;;;;;5099647;28;20128;-64
2023/06/24 12:06:39;;;;;;;6.35;2.97;;;;;;;;;;5097663;28;20090;-64
2023/06/24 12:09:06;;;;;;;5.90;2.75;;;;;;;;;;5100825;28;20043;-64
2023/06/24 12:11:32;;;;;;;8.55;3.95;;;;;;;;;;5086160;27;20146;-63
2023/06/24 12:13:59;;;;;;;6.78;3.33;;;;;;;;;;5119944;27;20092;-64
2023/06/24 12:16:26;;;;;;;6.38;3.33;;;;;;;;;;5114321;27;20108;-64
2023/06/24 12:18:54;;;;;;;11.10;5.10;;;;;;;;;;5101739;27;20130;-63
2023/06/24 12:21:20;;;;;;;;;;;;;;;;;;5094913;27;20083;-63
2023/06/24 12:23:47;;;;;;;9.30;3.60;;;;;;;;;;5098951;28;19919;-64
2023/06/24 12:26:13;;;;;;;6.55;3.03;;;;;;;;;;5097905;28;20136;-64
2023/06/24 12:28:40;;;;;;;7.13;2.90;;;;;;;;;;5096810;28;20101;-64
2023/06/24 12:31:08;;;;;;;5.68;2.83;;;;;;;;;;5083203;28;20086;-64
2023/06/24 12:33:35;;;;;;;9.77;3.33;;;;;;;;;;5087496;27;20063;-65
2023/06/24 12:36:03;;;;;;;9.18;3.38;;;;;;;;;;5086837;28;20047;-65
2023/06/24 12:38:31;;;;;;;10.35;2.72;;;;;;;;;;5097249;28;20063;-65
2023/06/24 12:40:58;;;;;;;6.13;2.55;;;;;;;;;;5099586;28;20097;-65
2023/06/24 12:43:24;;;;;;;7.15;3.50;;;;;;;;;;5088746;28;20051;-65
2023/06/24 12:45:51;;;;;;;4.28;2.50;;;;;;;;;;5088555;28;20055;-64
2023/06/24 12:48:20;;;;;;;7.28;3.35;;;;;;;;;;5097915;28;20090;-64
2023/06/24 12:50:52;;;;;;;6.93;2.97;;;;;;;;;;5099450;28;20081;-64
2023/06/24 12:53:23;;;;;;;6.80;3.15;;;;;;;;;;5091310;27;20047;-65
2023/06/24 12:55:50;;;;;;;6.40;2.67;;;;;;;;;;5054529;28;20064;-65
2023/06/24 12:58:19;;;;;;;7.50;3.47;;;;;;;;;;5082143;28;20120;-65
2023/06/24 13:00:46;;;;;;;5.93;2.63;;;;;;;;;;5100837;28;20176;-66
2023/06/24 13:03:13;;;;;;;6.07;3.00;;;;;;;;;;5095536;27;20079;-65
2023/06/24 13:05:39;;;;;;;6.20;3.00;;;;;;;;;;5085801;28;20116;-64
2023/06/24 13:08:06;;;;;;;10.25;3.63;;;;;;;;;;5099688;28;20139;-65
2023/06/24 13:10:34;;;;;;;6.10;2.90;;;;;;;;;;5118311;27;20190;-65
2023/06/24 13:13:00;;;;;;;8.38;3.35;;;;;;;;;;5121387;27;20069;-67
2023/06/24 13:15:27;;;;;;;7.80;2.90;;;;;;;;;;5088904;27;20071;-65
2023/06/24 13:17:53;;;;;;;5.32;2.60;;;;;;;;;;5098450;28;20060;-67
2023/06/24 13:20:22;;;;;;;6.68;3.42;;;;;;;;;;5079314;28;20056;-65
2023/06/24 13:22:48;;;;;;;7.38;3.53;;;;;;;;;;5097538;28;20063;-67
2023/06/24 13:25:18;;;;;;;8.18;3.75;;;;;;;;;;5065145;28;20055;-68
2023/06/24 13:27:46;;;;;;;6.22;2.72;;;;;;;;;;5084837;27;20060;-66
2023/06/24 13:30:14;;;;;;;;;;;;;;;;;;5077362;27;20048;-62
2023/06/24 13:32:41;;;;;;;4.75;2.80;;;;;;;;;;5079079;28;19981;-64
2023/06/24 13:35:10;;;;;;;9.68;2.92;;;;;;;;;;5055354;27;20054;-63
2023/06/24 13:37:38;;;;;;;4.97;2.40;;;;;;;;;;5101874;27;20110;-66
2023/06/24 13:40:05;;;;;;;6.07;2.55;;;;;;;;;;5088164;28;20056;-66
2023/06/24 13:42:32;;;;;;;5.90;2.80;;;;;;;;;;5078135;28;20067;-65
2023/06/24 13:45:00;;;;;;;6.15;2.40;;;;;;;;;;5076922;28;20328;-65
2023/06/24 13:47:26;;;;;;;;;;;;;;;;;;5091358;28;20048;-66
2023/06/24 13:49:53;;;;;;;3.95;2.40;;;;;;;;;;5096164;27;19963;-67
2023/06/24 13:52:20;;;;;;;9.15;3.13;;;;;;;;;;5099599;28;20091;-65
2023/06/24 13:54:47;;;;;;;7.30;2.70;;;;;;;;;;5099479;28;20056;-65
2023/06/24 13:57:15;;;;;;;5.50;2.58;;;;;;;;;;5093384;28;20054;-65
2023/06/24 13:59:45;;;;;;;8.07;3.38;;;;;;;;;;5097830;28;20067;-66
2023/06/24 14:02:13;;;;;;;7.28;2.65;;;;;;;;;;5093949;28;20067;-65
2023/06/24 14:04:39;;;;;;;4.97;2.50;;;;;;;;;;5078983;28;20346;-65
2023/06/24 14:07:06;;;;;;;5.18;2.20;;;;;;;;;;5091086;28;20059;-65
2023/06/24 14:09:33;;;;;;;6.65;2.95;;;;;;;;;;5094146;28;20051;-66
2023/06/24 14:11:59;;;;;;;6.75;3.35;;;;;;;;;;5085789;28;20065;-66
2023/06/24 14:14:26;;;;;;;5.80;2.47;;;;;;;;;;5096564;28;20087;-64
2023/06/24 14:16:52;;;;;;;7.30;2.95;;;;;;;;;;5096312;28;20151;-66
2023/06/24 14:19:20;;;;;;;6.50;3.22;;;;;;;;;;5090652;27;20059;-66
2023/06/24 14:21:47;;;;;;;4.90;2.40;;;;;;;;;;5085718;28;20060;-65
2023/06/24 14:24:14;;;;;;;7.20;3.08;;;;;;;;;;5069080;27;20064;-65
2023/06/24 14:26:41;;;;;;;6.00;2.97;;;;;;;;;;5075266;27;20079;-66
2023/06/24 14:29:08;;;;;;;6.70;2.75;;;;;;;;;;5092168;28;20059;-68
2023/06/24 14:31:34;;;;;;;5.40;2.70;;;;;;;;;;5074961;28;20052;-63
2023/06/24 14:34:01;;;;;;;5.55;2.80;;;;;;;;;;5081120;28;20067;-63
2023/06/24 14:36:29;;;;;;;6.28;2.92;;;;;;;;;;5088776;28;20212;-65
2023/06/24 14:38:56;;;;;;;5.38;2.80;;;;;;;;;;5081908;28;20067;-63
2023/06/24 14:41:22;;;;;;;4.68;2.42;;;;;;;;;;5083991;28;20097;-65